sensor_id;sensor_type;location;lat;lon;timestamp;P1;durP1;ratioP1;P2;durP2;ratioP2
51949;SDS011;37974;53.218;6.640;2023-09-30T00:01:41;1622.65;;;999.90;;
51949;SDS011;37974;53.218;6.640;2023-09-30T00:04:09;1624.90;;;999.90;;
51949;SDS011;37974;53.218;6.640;2023-09-30T00:06:34;1628.90;;;999.90;;
51949;SDS011;37974;53.218;6.640;2023-09-30T00:09:00;1409.65;;;999.90;;
51949;SDS011;37974;53.218;6.640;2023-09-30T00:11:27;1441.25;;;999.90;;
51949;SDS011;37974;53.218;6.640;2023-09-30T00:13:52;1453.93;;;999.90;;
51949;SDS011;37974;53.218;6.640;2023-09-30T00:16:18;1607.40;;;999.90;;
51949;SDS011;37974;53.218;6.640;2023-09-30T00:18:44;1443.47;;;999.47;;
51949;SDS011;37974;53.218;6.640;2023-09-30T00:21:10;1531.32;;;999.90;;
51949;SDS011;37974;53.218;6.640;2023-09-30T00:23:36;1564.95;;;999.90;;
51949;SDS011;37974;53.218;6.640;2023-09-30T00:26:03;1677.45;;;999.90;;
51949;SDS011;37974;53.218;6.640;2023-09-30T00:28:29;1671.28;;;999.90;;
51949;SDS011;37974;53.218;6.640;2023-09-30T00:30:54;1555.45;;;999.90;;
51949;SDS011;37974;53.218;6.640;2023-09-30T00:33:20;1526.35;;;999.90;;
51949;SDS011;37974;53.218;6.640;2023-09-30T00:35:46;1425.90;;;999.90;;
51949;SDS011;37974;53.218;6.640;2023-09-30T00:38:11;1479.45;;;999.90;;
51949;SDS011;37974;53.218;6.640;2023-09-30T00:40:37;1400.57;;;999.90;;
51949;SDS011;37974;53.218;6.640;2023-09-30T00:43:03;1401.18;;;999.90;;
51949;SDS011;37974;53.218;6.640;2023-09-30T00:45:29;1434.95;;;999.90;;
51949;SDS011;37974;53.218;6.640;2023-09-30T00:47:55;1418.90;;;999.25;;
51949;SDS011;37974;53.218;6.640;2023-09-30T00:50:21;1441.43;;;999.90;;
51949;SDS011;37974;53.218;6.640;2023-09-30T00:52:48;1619.32;;;999.90;;
51949;SDS011;37974;53.218;6.640;2023-09-30T00:55:14;1459.55;;;999.90;;
51949;SDS011;37974;53.218;6.640;2023-09-30T00:57:41;1715.75;;;999.90;;
51949;SDS011;37974;53.218;6.640;2023-09-30T01:00:24;1742.07;;;999.90;;
51949;SDS011;37974;53.218;6.640;2023-09-30T01:02:53;1639.60;;;999.90;;
51949;SDS011;37974;53.218;6.640;2023-09-30T01:05:31;1763.60;;;999.90;;
51949;SDS011;37974;53.218;6.640;2023-09-30T01:07:56;1596.63;;;999.90;;
51949;SDS011;37974;53.218;6.640;2023-09-30T01:10:22;1645.90;;;999.90;;
51949;SDS011;37974;53.218;6.640;2023-09-30T01:12:52;1755.30;;;999.90;;
51949;SDS011;37974;53.218;6.640;2023-09-30T01:15:35;1589.80;;;999.90;;
51949;SDS011;37974;53.218;6.640;2023-09-30T01:18:02;1800.38;;;999.90;;
51949;SDS011;37974;53.218;6.640;2023-09-30T01:20:29;1760.15;;;999.90;;
51949;SDS011;37974;53.218;6.640;2023-09-30T01:22:59;1800.25;;;999.90;;
51949;SDS011;37974;53.218;6.640;2023-09-30T01:25:36;1648.10;;;999.90;;
51949;SDS011;37974;53.218;6.640;2023-09-30T01:28:06;1577.70;;;999.90;;
51949;SDS011;37974;53.218;6.640;2023-09-30T01:30:33;1276.85;;;982.13;;
51949;SDS011;37974;53.218;6.640;2023-09-30T01:32:59;1438.18;;;999.90;;
51949;SDS011;37974;53.218;6.640;2023-09-30T01:35:25;1245.00;;;969.88;;
51949;SDS011;37974;53.218;6.640;2023-09-30T01:37:53;1290.05;;;988.72;;
51949;SDS011;37974;53.218;6.640;2023-09-30T01:40:19;1329.80;;;998.58;;
51949;SDS011;37974;53.218;6.640;2023-09-30T01:42:44;1542.38;;;999.90;;
51949;SDS011;37974;53.218;6.640;2023-09-30T01:45:10;1283.78;;;980.30;;
51949;SDS011;37974;53.218;6.640;2023-09-30T01:47:36;1272.88;;;986.63;;
51949;SDS011;37974;53.218;6.640;2023-09-30T01:50:01;1394.38;;;999.90;;
51949;SDS011;37974;53.218;6.640;2023-09-30T01:52:27;1390.55;;;999.90;;
51949;SDS011;37974;53.218;6.640;2023-09-30T01:54:53;1353.78;;;999.90;;
51949;SDS011;37974;53.218;6.640;2023-09-30T01:57:19;1384.35;;;999.90;;
51949;SDS011;37974;53.218;6.640;2023-09-30T01:59:47;1369.13;;;999.90;;
51949;SDS011;37974;53.218;6.640;2023-09-30T02:02:16;1415.15;;;999.90;;
51949;SDS011;37974;53.218;6.640;2023-09-30T02:04:42;1245.15;;;976.08;;
51949;SDS011;37974;53.218;6.640;2023-09-30T02:07:09;1419.93;;;999.90;;
51949;SDS011;37974;53.218;6.640;2023-09-30T02:09:37;1376.88;;;999.58;;
51949;SDS011;37974;53.218;6.640;2023-09-30T02:12:04;1292.05;;;988.25;;
51949;SDS011;37974;53.218;6.640;2023-09-30T02:14:32;1283.75;;;992.75;;
51949;SDS011;37974;53.218;6.640;2023-09-30T02:17:04;1412.28;;;999.90;;
51949;SDS011;37974;53.218;6.640;2023-09-30T02:19:43;1290.57;;;980.85;;
51949;SDS011;37974;53.218;6.640;2023-09-30T02:22:17;1243.00;;;967.97;;
51949;SDS011;37974;53.218;6.640;2023-09-30T02:24:58;1243.22;;;976.83;;
51949;SDS011;37974;53.218;6.640;2023-09-30T02:27:24;1455.10;;;999.90;;
51949;SDS011;37974;53.218;6.640;2023-09-30T02:29:50;1415.25;;;999.17;;
51949;SDS011;37974;53.218;6.640;2023-09-30T02:32:16;1430.63;;;999.90;;
51949;SDS011;37974;53.218;6.640;2023-09-30T02:34:42;1273.57;;;975.60;;
51949;SDS011;37974;53.218;6.640;2023-09-30T02:37:09;1313.03;;;990.35;;
51949;SDS011;37974;53.218;6.640;2023-09-30T02:39:35;1454.30;;;999.90;;
51949;SDS011;37974;53.218;6.640;2023-09-30T02:42:02;1267.65;;;984.05;;
51949;SDS011;37974;53.218;6.640;2023-09-30T02:44:33;1360.63;;;999.10;;
51949;SDS011;37974;53.218;6.640;2023-09-30T02:46:59;1392.57;;;996.83;;
51949;SDS011;37974;53.218;6.640;2023-09-30T02:49:25;1375.78;;;998.97;;
51949;SDS011;37974;53.218;6.640;2023-09-30T02:51:57;1258.45;;;977.35;;
51949;SDS011;37974;53.218;6.640;2023-09-30T02:54:23;1319.40;;;983.50;;
51949;SDS011;37974;53.218;6.640;2023-09-30T02:56:51;1408.78;;;999.90;;
51949;SDS011;37974;53.218;6.640;2023-09-30T02:59:35;1289.70;;;978.85;;
51949;SDS011;37974;53.218;6.640;2023-09-30T03:02:12;1397.72;;;999.88;;
51949;SDS011;37974;53.218;6.640;2023-09-30T03:04:47;1282.47;;;979.40;;
51949;SDS011;37974;53.218;6.640;2023-09-30T03:07:21;1250.32;;;970.40;;
51949;SDS011;37974;53.218;6.640;2023-09-30T03:09:57;1311.75;;;995.35;;
51949;SDS011;37974;53.218;6.640;2023-09-30T03:12:30;1382.53;;;998.60;;
51949;SDS011;37974;53.218;6.640;2023-09-30T03:14:56;1226.35;;;967.28;;
51949;SDS011;37974;53.218;6.640;2023-09-30T03:17:23;1243.35;;;963.70;;
51949;SDS011;37974;53.218;6.640;2023-09-30T03:19:53;1213.18;;;955.50;;
51949;SDS011;37974;53.218;6.640;2023-09-30T03:22:33;1209.80;;;958.25;;
51949;SDS011;37974;53.218;6.640;2023-09-30T03:25:06;1325.80;;;989.78;;
51949;SDS011;37974;53.218;6.640;2023-09-30T03:30:02;1127.68;;;928.35;;
51949;SDS011;37974;53.218;6.640;2023-09-30T03:32:31;1303.03;;;987.63;;
51949;SDS011;37974;53.218;6.640;2023-09-30T03:34:58;1164.60;;;946.60;;
51949;SDS011;37974;53.218;6.640;2023-09-30T03:37:26;1311.28;;;988.47;;
51949;SDS011;37974;53.218;6.640;2023-09-30T03:39:55;1300.43;;;986.47;;
51949;SDS011;37974;53.218;6.640;2023-09-30T03:42:21;1254.28;;;977.55;;
51949;SDS011;37974;53.218;6.640;2023-09-30T03:44:49;1175.18;;;952.63;;
51949;SDS011;37974;53.218;6.640;2023-09-30T03:47:16;1320.78;;;991.92;;
51949;SDS011;37974;53.218;6.640;2023-09-30T03:49:42;1178.43;;;954.05;;
51949;SDS011;37974;53.218;6.640;2023-09-30T03:52:08;1143.88;;;946.30;;
51949;SDS011;37974;53.218;6.640;2023-09-30T03:54:36;1189.47;;;952.33;;
51949;SDS011;37974;53.218;6.640;2023-09-30T03:57:02;1188.45;;;950.00;;
51949;SDS011;37974;53.218;6.640;2023-09-30T03:59:28;1157.82;;;943.33;;
51949;SDS011;37974;53.218;6.640;2023-09-30T04:01:57;1267.30;;;972.20;;
51949;SDS011;37974;53.218;6.640;2023-09-30T04:04:26;1250.22;;;971.35;;
51949;SDS011;37974;53.218;6.640;2023-09-30T04:07:14;1238.22;;;971.13;;
51949;SDS011;37974;53.218;6.640;2023-09-30T04:09:43;1129.35;;;939.75;;
51949;SDS011;37974;53.218;6.640;2023-09-30T04:12:11;1326.75;;;987.28;;
51949;SDS011;37974;53.218;6.640;2023-09-30T04:14:37;1397.95;;;999.90;;
51949;SDS011;37974;53.218;6.640;2023-09-30T04:17:06;1202.47;;;957.60;;
51949;SDS011;37974;53.218;6.640;2023-09-30T04:19:34;1299.45;;;989.20;;
51949;SDS011;37974;53.218;6.640;2023-09-30T04:22:03;1315.18;;;990.50;;
51949;SDS011;37974;53.218;6.640;2023-09-30T04:24:32;1295.85;;;985.10;;
51949;SDS011;37974;53.218;6.640;2023-09-30T04:26:57;1252.63;;;979.08;;
51949;SDS011;37974;53.218;6.640;2023-09-30T04:29:28;1317.93;;;996.58;;
51949;SDS011;37974;53.218;6.640;2023-09-30T04:31:55;1330.03;;;996.08;;
51949;SDS011;37974;53.218;6.640;2023-09-30T04:34:21;1276.35;;;975.13;;
51949;SDS011;37974;53.218;6.640;2023-09-30T04:36:47;1223.35;;;973.92;;
51949;SDS011;37974;53.218;6.640;2023-09-30T04:39:31;1237.30;;;980.08;;
51949;SDS011;37974;53.218;6.640;2023-09-30T04:42:00;1198.55;;;954.05;;
51949;SDS011;37974;53.218;6.640;2023-09-30T04:44:26;1359.82;;;998.15;;
51949;SDS011;37974;53.218;6.640;2023-09-30T04:46:58;1200.00;;;963.08;;
51949;SDS011;37974;53.218;6.640;2023-09-30T04:49:25;1161.15;;;962.03;;
51949;SDS011;37974;53.218;6.640;2023-09-30T04:51:51;1309.32;;;991.83;;
51949;SDS011;37974;53.218;6.640;2023-09-30T04:54:16;1138.95;;;948.90;;
51949;SDS011;37974;53.218;6.640;2023-09-30T04:56:42;1279.22;;;995.42;;
51949;SDS011;37974;53.218;6.640;2023-09-30T04:59:12;1151.07;;;950.78;;
51949;SDS011;37974;53.218;6.640;2023-09-30T05:01:41;1308.50;;;997.83;;
51949;SDS011;37974;53.218;6.640;2023-09-30T05:04:06;1275.50;;;988.28;;
51949;SDS011;37974;53.218;6.640;2023-09-30T05:06:32;1160.72;;;961.55;;
51949;SDS011;37974;53.218;6.640;2023-09-30T05:08:58;1150.13;;;945.40;;
51949;SDS011;37974;53.218;6.640;2023-09-30T05:11:25;1326.55;;;994.60;;
51949;SDS011;37974;53.218;6.640;2023-09-30T05:13:50;1163.70;;;958.03;;
51949;SDS011;37974;53.218;6.640;2023-09-30T05:16:16;1117.15;;;949.65;;
51949;SDS011;37974;53.218;6.640;2023-09-30T05:18:50;1092.90;;;934.33;;
51949;SDS011;37974;53.218;6.640;2023-09-30T05:21:25;1245.25;;;984.17;;
51949;SDS011;37974;53.218;6.640;2023-09-30T05:23:51;1238.72;;;986.42;;
51949;SDS011;37974;53.218;6.640;2023-09-30T05:26:24;1218.90;;;977.80;;
51949;SDS011;37974;53.218;6.640;2023-09-30T05:28:49;1246.15;;;981.80;;
51949;SDS011;37974;53.218;6.640;2023-09-30T05:31:15;1119.30;;;950.05;;
51949;SDS011;37974;53.218;6.640;2023-09-30T05:33:42;1156.70;;;955.90;;
51949;SDS011;37974;53.218;6.640;2023-09-30T05:36:11;1223.30;;;974.63;;
51949;SDS011;37974;53.218;6.640;2023-09-30T05:38:41;1130.97;;;952.75;;
51949;SDS011;37974;53.218;6.640;2023-09-30T05:41:16;1130.95;;;946.42;;
51949;SDS011;37974;53.218;6.640;2023-09-30T05:43:48;1121.75;;;941.03;;
51949;SDS011;37974;53.218;6.640;2023-09-30T05:46:14;1154.60;;;962.55;;
51949;SDS011;37974;53.218;6.640;2023-09-30T05:48:40;1146.25;;;942.58;;
51949;SDS011;37974;53.218;6.640;2023-09-30T05:51:07;1198.32;;;972.47;;
51949;SDS011;37974;53.218;6.640;2023-09-30T05:53:53;1292.07;;;995.55;;
51949;SDS011;37974;53.218;6.640;2023-09-30T05:56:19;1220.95;;;976.03;;
51949;SDS011;37974;53.218;6.640;2023-09-30T05:58:45;1148.50;;;950.13;;
51949;SDS011;37974;53.218;6.640;2023-09-30T06:01:15;1256.10;;;989.75;;
51949;SDS011;37974;53.218;6.640;2023-09-30T06:03:44;1287.68;;;993.75;;
51949;SDS011;37974;53.218;6.640;2023-09-30T06:06:15;1272.10;;;996.20;;
51949;SDS011;37974;53.218;6.640;2023-09-30T06:08:44;1265.88;;;990.00;;
51949;SDS011;37974;53.218;6.640;2023-09-30T06:11:16;1223.22;;;989.63;;
51949;SDS011;37974;53.218;6.640;2023-09-30T06:13:53;1113.28;;;945.47;;
51949;SDS011;37974;53.218;6.640;2023-09-30T06:16:24;1255.88;;;983.67;;
51949;SDS011;37974;53.218;6.640;2023-09-30T06:18:51;1071.15;;;937.65;;
51949;SDS011;37974;53.218;6.640;2023-09-30T06:21:21;1214.45;;;987.75;;
51949;SDS011;37974;53.218;6.640;2023-09-30T06:23:51;1197.55;;;970.90;;
51949;SDS011;37974;53.218;6.640;2023-09-30T06:26:17;1201.95;;;971.10;;
51949;SDS011;37974;53.218;6.640;2023-09-30T06:34:04;1205.78;;;969.30;;
51949;SDS011;37974;53.218;6.640;2023-09-30T06:36:32;1237.35;;;985.78;;
51949;SDS011;37974;53.218;6.640;2023-09-30T06:39:00;1175.05;;;957.90;;
51949;SDS011;37974;53.218;6.640;2023-09-30T06:41:27;1173.28;;;963.13;;
51949;SDS011;37974;53.218;6.640;2023-09-30T06:43:53;1191.85;;;966.13;;
51949;SDS011;37974;53.218;6.640;2023-09-30T06:46:19;1072.80;;;932.88;;
51949;SDS011;37974;53.218;6.640;2023-09-30T06:48:44;1055.25;;;932.80;;
51949;SDS011;37974;53.218;6.640;2023-09-30T06:51:14;1053.10;;;920.92;;
51949;SDS011;37974;53.218;6.640;2023-09-30T06:53:43;1108.63;;;942.17;;
51949;SDS011;37974;53.218;6.640;2023-09-30T06:56:08;1117.80;;;955.85;;
51949;SDS011;37974;53.218;6.640;2023-09-30T06:58:38;1036.20;;;903.58;;
51949;SDS011;37974;53.218;6.640;2023-09-30T07:01:16;1026.18;;;914.40;;
51949;SDS011;37974;53.218;6.640;2023-09-30T07:03:45;1234.63;;;972.90;;
51949;SDS011;37974;53.218;6.640;2023-09-30T07:06:24;1099.30;;;942.45;;
51949;SDS011;37974;53.218;6.640;2023-09-30T07:08:50;1019.08;;;907.42;;
51949;SDS011;37974;53.218;6.640;2023-09-30T07:11:16;1090.05;;;924.72;;
51949;SDS011;37974;53.218;6.640;2023-09-30T07:13:42;988.67;;;882.45;;
51949;SDS011;37974;53.218;6.640;2023-09-30T07:23:25;968.03;;;863.90;;
51949;SDS011;37974;53.218;6.640;2023-09-30T07:26:27;1004.83;;;895.28;;
51949;SDS011;37974;53.218;6.640;2023-09-30T07:29:25;970.63;;;869.35;;
51949;SDS011;37974;53.218;6.640;2023-09-30T07:32:22;992.58;;;883.45;;
51949;SDS011;37974;53.218;6.640;2023-09-30T07:35:06;1001.40;;;892.20;;
51949;SDS011;37974;53.218;6.640;2023-09-30T07:37:55;937.90;;;840.65;;
51949;SDS011;37974;53.218;6.640;2023-09-30T07:40:39;955.08;;;855.25;;
51949;SDS011;37974;53.218;6.640;2023-09-30T07:43:09;998.00;;;888.45;;
51949;SDS011;37974;53.218;6.640;2023-09-30T07:45:37;942.75;;;846.53;;
51949;SDS011;37974;53.218;6.640;2023-09-30T07:48:04;955.17;;;855.35;;
51949;SDS011;37974;53.218;6.640;2023-09-30T07:50:32;951.75;;;855.40;;
51949;SDS011;37974;53.218;6.640;2023-09-30T07:52:59;940.45;;;845.10;;
51949;SDS011;37974;53.218;6.640;2023-09-30T07:55:46;908.90;;;818.47;;
51949;SDS011;37974;53.218;6.640;2023-09-30T07:58:15;921.33;;;826.15;;
51949;SDS011;37974;53.218;6.640;2023-09-30T08:04:32;911.10;;;816.47;;
51949;SDS011;37974;53.218;6.640;2023-09-30T08:08:08;982.05;;;874.92;;
51949;SDS011;37974;53.218;6.640;2023-09-30T08:14:29;908.03;;;815.13;;
51949;SDS011;37974;53.218;6.640;2023-09-30T08:17:38;963.83;;;859.88;;
51949;SDS011;37974;53.218;6.640;2023-09-30T08:20:58;920.30;;;824.05;;
51949;SDS011;37974;53.218;6.640;2023-09-30T08:31:15;1017.92;;;881.50;;
51949;SDS011;37974;53.218;6.640;2023-09-30T08:33:43;1052.10;;;894.47;;
51949;SDS011;37974;53.218;6.640;2023-09-30T08:37:27;1072.28;;;900.17;;
51949;SDS011;37974;53.218;6.640;2023-09-30T08:39:51;1054.88;;;900.17;;
51949;SDS011;37974;53.218;6.640;2023-09-30T08:42:16;937.85;;;837.53;;
51949;SDS011;37974;53.218;6.640;2023-09-30T08:44:51;926.75;;;829.75;;
51949;SDS011;37974;53.218;6.640;2023-09-30T08:47:19;918.60;;;822.78;;
51949;SDS011;37974;53.218;6.640;2023-09-30T08:49:56;884.88;;;795.42;;
51949;SDS011;37974;53.218;6.640;2023-09-30T08:52:37;834.97;;;751.90;;
51949;SDS011;37974;53.218;6.640;2023-09-30T08:55:09;841.88;;;759.72;;
51949;SDS011;37974;53.218;6.640;2023-09-30T08:57:55;838.10;;;755.90;;
51949;SDS011;37974;53.218;6.640;2023-09-30T09:00:46;833.00;;;751.85;;
51949;SDS011;37974;53.218;6.640;2023-09-30T09:06:27;810.55;;;733.97;;
51949;SDS011;37974;53.218;6.640;2023-09-30T09:09:12;733.63;;;665.70;;
51949;SDS011;37974;53.218;6.640;2023-09-30T09:12:01;764.83;;;693.08;;
51949;SDS011;37974;53.218;6.640;2023-09-30T09:14:58;745.17;;;675.83;;
51949;SDS011;37974;53.218;6.640;2023-09-30T09:18:01;698.20;;;633.03;;
51949;SDS011;37974;53.218;6.640;2023-09-30T09:20:42;765.83;;;694.03;;
51949;SDS011;37974;53.218;6.640;2023-09-30T09:23:38;718.20;;;651.38;;
51949;SDS011;37974;53.218;6.640;2023-09-30T09:26:23;712.85;;;646.85;;
51949;SDS011;37974;53.218;6.640;2023-09-30T09:29:43;721.13;;;654.70;;
51949;SDS011;37974;53.218;6.640;2023-09-30T09:32:26;698.17;;;634.25;;
51949;SDS011;37974;53.218;6.640;2023-09-30T09:38:20;659.22;;;595.75;;
51949;SDS011;37974;53.218;6.640;2023-09-30T09:40:46;702.55;;;638.83;;
51949;SDS011;37974;53.218;6.640;2023-09-30T09:43:11;719.72;;;649.00;;
51949;SDS011;37974;53.218;6.640;2023-09-30T09:45:37;809.97;;;728.88;;
51949;SDS011;37974;53.218;6.640;2023-09-30T09:48:03;695.00;;;632.50;;
51949;SDS011;37974;53.218;6.640;2023-09-30T09:50:30;685.25;;;623.40;;
51949;SDS011;37974;53.218;6.640;2023-09-30T09:52:58;815.13;;;733.65;;
51949;SDS011;37974;53.218;6.640;2023-09-30T09:55:25;792.75;;;714.38;;
51949;SDS011;37974;53.218;6.640;2023-09-30T09:57:52;709.03;;;638.65;;
51949;SDS011;37974;53.218;6.640;2023-09-30T10:00:21;725.25;;;654.03;;
51949;SDS011;37974;53.218;6.640;2023-09-30T10:02:49;762.47;;;684.92;;
51949;SDS011;37974;53.218;6.640;2023-09-30T10:05:18;737.80;;;664.33;;
51949;SDS011;37974;53.218;6.640;2023-09-30T10:08:04;813.88;;;732.53;;
51949;SDS011;37974;53.218;6.640;2023-09-30T10:10:35;779.83;;;701.42;;
51949;SDS011;37974;53.218;6.640;2023-09-30T10:13:02;805.30;;;724.30;;
51949;SDS011;37974;53.218;6.640;2023-09-30T10:15:48;803.75;;;723.30;;
51949;SDS011;37974;53.218;6.640;2023-09-30T10:18:19;771.13;;;695.60;;
51949;SDS011;37974;53.218;6.640;2023-09-30T10:20:45;723.33;;;653.92;;
51949;SDS011;37974;53.218;6.640;2023-09-30T10:23:22;812.42;;;729.08;;
51949;SDS011;37974;53.218;6.640;2023-09-30T10:28:40;663.42;;;603.13;;
51949;SDS011;37974;53.218;6.640;2023-09-30T10:31:16;758.67;;;685.25;;
51949;SDS011;37974;53.218;6.640;2023-09-30T10:36:30;763.20;;;688.85;;
51949;SDS011;37974;53.218;6.640;2023-09-30T10:39:00;756.63;;;682.75;;
51949;SDS011;37974;53.218;6.640;2023-09-30T10:41:49;606.83;;;549.42;;
51949;SDS011;37974;53.218;6.640;2023-09-30T10:44:55;648.22;;;586.40;;
51949;SDS011;37974;53.218;6.640;2023-09-30T11:02:51;645.05;;;583.65;;
51949;SDS011;37974;53.218;6.640;2023-09-30T11:05:21;676.72;;;614.17;;
51949;SDS011;37974;53.218;6.640;2023-09-30T11:07:49;590.92;;;535.60;;
51949;SDS011;37974;53.218;6.640;2023-09-30T11:10:17;625.70;;;567.63;;
51949;SDS011;37974;53.218;6.640;2023-09-30T11:15:27;646.95;;;586.63;;
51949;SDS011;37974;53.218;6.640;2023-09-30T11:18:12;538.85;;;490.52;;
51949;SDS011;37974;53.218;6.640;2023-09-30T11:20:44;646.70;;;585.67;;
51949;SDS011;37974;53.218;6.640;2023-09-30T11:26:01;528.08;;;481.40;;
51949;SDS011;37974;53.218;6.640;2023-09-30T11:28:36;542.83;;;494.75;;
51949;SDS011;37974;53.218;6.640;2023-09-30T11:31:06;514.15;;;468.48;;
51949;SDS011;37974;53.218;6.640;2023-09-30T11:33:48;650.00;;;588.33;;
51949;SDS011;37974;53.218;6.640;2023-09-30T11:36:26;586.50;;;532.88;;
51949;SDS011;37974;53.218;6.640;2023-09-30T11:39:28;601.72;;;545.40;;
51949;SDS011;37974;53.218;6.640;2023-09-30T11:42:23;450.55;;;412.33;;
51949;SDS011;37974;53.218;6.640;2023-09-30T11:45:38;469.83;;;428.52;;
51949;SDS011;37974;53.218;6.640;2023-09-30T11:48:16;471.40;;;427.67;;
51949;SDS011;37974;53.218;6.640;2023-09-30T11:50:48;462.42;;;421.58;;
51949;SDS011;37974;53.218;6.640;2023-09-30T11:57:04;555.28;;;505.35;;
51949;SDS011;37974;53.218;6.640;2023-09-30T12:03:04;625.90;;;568.53;;
51949;SDS011;37974;53.218;6.640;2023-09-30T12:05:32;597.38;;;543.00;;
51949;SDS011;37974;53.218;6.640;2023-09-30T12:11:24;652.53;;;591.53;;
51949;SDS011;37974;53.218;6.640;2023-09-30T12:13:50;603.03;;;547.45;;
51949;SDS011;37974;53.218;6.640;2023-09-30T12:17:08;731.90;;;663.50;;
51949;SDS011;37974;53.218;6.640;2023-09-30T12:20:12;691.53;;;626.78;;
51949;SDS011;37974;53.218;6.640;2023-09-30T12:22:43;570.28;;;518.85;;
51949;SDS011;37974;53.218;6.640;2023-09-30T12:25:13;712.55;;;646.80;;
51949;SDS011;37974;53.218;6.640;2023-09-30T12:27:44;737.63;;;670.42;;
51949;SDS011;37974;53.218;6.640;2023-09-30T12:30:21;635.90;;;577.28;;
51949;SDS011;37974;53.218;6.640;2023-09-30T12:33:07;714.33;;;648.80;;
51949;SDS011;37974;53.218;6.640;2023-09-30T12:35:42;775.00;;;703.08;;
51949;SDS011;37974;53.218;6.640;2023-09-30T12:38:11;619.03;;;561.65;;
51949;SDS011;37974;53.218;6.640;2023-09-30T12:40:37;665.03;;;603.72;;
51949;SDS011;37974;53.218;6.640;2023-09-30T12:43:05;501.33;;;455.98;;
51949;SDS011;37974;53.218;6.640;2023-09-30T12:45:41;557.08;;;505.58;;
51949;SDS011;37974;53.218;6.640;2023-09-30T12:48:12;558.67;;;507.25;;
51949;SDS011;37974;53.218;6.640;2023-09-30T12:54:06;510.17;;;463.38;;
51949;SDS011;37974;53.218;6.640;2023-09-30T12:56:53;490.52;;;446.60;;
51949;SDS011;37974;53.218;6.640;2023-09-30T12:59:22;400.65;;;366.50;;
51949;SDS011;37974;53.218;6.640;2023-09-30T13:01:50;509.98;;;463.08;;
51949;SDS011;37974;53.218;6.640;2023-09-30T13:04:17;480.75;;;436.90;;
51949;SDS011;37974;53.218;6.640;2023-09-30T13:06:47;423.90;;;386.80;;
51949;SDS011;37974;53.218;6.640;2023-09-30T13:09:15;400.80;;;366.15;;
51949;SDS011;37974;53.218;6.640;2023-09-30T13:11:41;397.48;;;363.00;;
51949;SDS011;37974;53.218;6.640;2023-09-30T13:14:07;521.95;;;472.45;;
51949;SDS011;37974;53.218;6.640;2023-09-30T13:16:33;385.63;;;354.15;;
51949;SDS011;37974;53.218;6.640;2023-09-30T13:19:01;550.45;;;501.33;;
51949;SDS011;37974;53.218;6.640;2023-09-30T13:21:30;596.55;;;542.28;;
51949;SDS011;37974;53.218;6.640;2023-09-30T13:23:55;642.28;;;576.20;;
51949;SDS011;37974;53.218;6.640;2023-09-30T13:26:30;639.13;;;574.38;;
51949;SDS011;37974;53.218;6.640;2023-09-30T13:28:59;712.83;;;641.00;;
51949;SDS011;37974;53.218;6.640;2023-09-30T13:31:26;662.58;;;593.85;;
51949;SDS011;37974;53.218;6.640;2023-09-30T13:41:19;610.92;;;556.17;;
51949;SDS011;37974;53.218;6.640;2023-09-30T13:47:36;647.45;;;585.50;;
51949;SDS011;37974;53.218;6.640;2023-09-30T14:15:15;724.42;;;653.38;;
51949;SDS011;37974;53.218;6.640;2023-09-30T14:17:41;669.90;;;604.55;;
51949;SDS011;37974;53.218;6.640;2023-09-30T14:27:00;749.72;;;672.60;;
51949;SDS011;37974;53.218;6.640;2023-09-30T14:30:58;841.75;;;747.53;;
51949;SDS011;37974;53.218;6.640;2023-09-30T14:33:34;750.42;;;675.83;;
51949;SDS011;37974;53.218;6.640;2023-09-30T14:36:44;799.15;;;719.03;;
51949;SDS011;37974;53.218;6.640;2023-09-30T14:39:54;782.25;;;705.60;;
51949;SDS011;37974;53.218;6.640;2023-09-30T14:42:58;725.00;;;656.88;;
51949;SDS011;37974;53.218;6.640;2023-09-30T14:45:47;729.72;;;657.53;;
51949;SDS011;37974;53.218;6.640;2023-09-30T14:48:15;746.65;;;675.70;;
51949;SDS011;37974;53.218;6.640;2023-09-30T14:51:45;753.67;;;682.13;;
51949;SDS011;37974;53.218;6.640;2023-09-30T14:54:03;821.50;;;735.92;;
51949;SDS011;37974;53.218;6.640;2023-09-30T14:56:29;799.92;;;721.80;;
51949;SDS011;37974;53.218;6.640;2023-09-30T14:58:55;752.53;;;680.53;;
51949;SDS011;37974;53.218;6.640;2023-09-30T15:01:57;764.03;;;688.80;;
51949;SDS011;37974;53.218;6.640;2023-09-30T15:04:29;808.55;;;730.85;;
51949;SDS011;37974;53.218;6.640;2023-09-30T15:10:48;689.63;;;625.78;;
51949;SDS011;37974;53.218;6.640;2023-09-30T15:13:14;788.03;;;712.05;;
51949;SDS011;37974;53.218;6.640;2023-09-30T15:15:44;759.60;;;687.20;;
51949;SDS011;37974;53.218;6.640;2023-09-30T15:18:26;755.05;;;683.25;;
51949;SDS011;37974;53.218;6.640;2023-09-30T15:20:52;781.60;;;707.17;;
51949;SDS011;37974;53.218;6.640;2023-09-30T15:23:26;759.30;;;686.67;;
51949;SDS011;37974;53.218;6.640;2023-09-30T15:26:08;751.83;;;680.63;;
51949;SDS011;37974;53.218;6.640;2023-09-30T15:28:55;776.15;;;703.22;;
51949;SDS011;37974;53.218;6.640;2023-09-30T15:48:51;657.90;;;597.45;;
51949;SDS011;37974;53.218;6.640;2023-09-30T15:51:24;678.78;;;616.78;;
51949;SDS011;37974;53.218;6.640;2023-09-30T15:53:53;690.65;;;626.65;;
51949;SDS011;37974;53.218;6.640;2023-09-30T17:31:10;850.75;;;769.53;;
51949;SDS011;37974;53.218;6.640;2023-09-30T17:33:37;837.92;;;758.08;;
51949;SDS011;37974;53.218;6.640;2023-09-30T17:36:04;897.47;;;809.45;;
51949;SDS011;37974;53.218;6.640;2023-09-30T17:38:49;857.78;;;777.95;;
51949;SDS011;37974;53.218;6.640;2023-09-30T17:41:48;874.40;;;790.53;;
51949;SDS011;37974;53.218;6.640;2023-09-30T17:44:14;884.08;;;800.03;;
51949;SDS011;37974;53.218;6.640;2023-09-30T17:46:40;883.03;;;799.45;;
51949;SDS011;37974;53.218;6.640;2023-09-30T17:49:06;862.13;;;782.38;;
51949;SDS011;37974;53.218;6.640;2023-09-30T17:51:34;846.28;;;769.67;;
51949;SDS011;37974;53.218;6.640;2023-09-30T17:54:00;836.28;;;759.13;;
51949;SDS011;37974;53.218;6.640;2023-09-30T17:56:25;858.63;;;778.13;;
51949;SDS011;37974;53.218;6.640;2023-09-30T17:58:54;867.53;;;786.38;;
51949;SDS011;37974;53.218;6.640;2023-09-30T18:01:26;834.13;;;760.25;;
51949;SDS011;37974;53.218;6.640;2023-09-30T18:04:06;856.63;;;778.33;;
51949;SDS011;37974;53.218;6.640;2023-09-30T18:06:58;854.55;;;775.10;;
51949;SDS011;37974;53.218;6.640;2023-09-30T18:09:24;867.47;;;786.00;;
51949;SDS011;37974;53.218;6.640;2023-09-30T18:11:53;861.63;;;781.20;;
51949;SDS011;37974;53.218;6.640;2023-09-30T18:14:19;885.70;;;801.97;;
51949;SDS011;37974;53.218;6.640;2023-09-30T18:17:03;873.50;;;791.50;;
51949;SDS011;37974;53.218;6.640;2023-09-30T18:19:48;866.65;;;785.90;;
51949;SDS011;37974;53.218;6.640;2023-09-30T18:22:24;946.78;;;850.80;;